Private Wetterstation Wechselburg
Wetterdaten: Donnerstag, 21.10.2021
Datum Zeit Temp. +2m Bodentemp. Temp.+5cm Temp. Wind Windchill X Diff Temp. Feuchte +2m Feuchte +5cm Luftdruck Regen Wind Richtung Richtung Sonnenschein Taupunkt Windchill Windben
21.10.2021 00:00 18,3 C 15,1 C 17,2 C 18,2 C 18,0 C 0,0 C 68 % 70 % 1004,2 hPa 0,0 l/m 4,7 km/h (1 Bft) S-SO 157 0 min 12,3 C 18,0 C 3,2 km/h (1 Bft)
21.10.2021 00:05 18,2 C 15,1 C 17,1 C 18,0 C 17,7 C 0,0 C 67 % 70 % 1004,2 hPa 0,0 l/m 5,5 km/h (1 Bft) SO 135 0 min 12,0 C 17,7 C 6,3 km/h (2 Bft)
21.10.2021 00:10 18,1 C 15,1 C 17,1 C 17,9 C 17,6 C 0,0 C 67 % 70 % 1004,2 hPa 0,0 l/m 6,0 km/h (2 Bft) S 180 0 min 11,9 C 17,6 C 6,4 km/h (2 Bft)
21.10.2021 00:15 18,0 C 15,1 C 17,0 C 17,9 C 17,6 C 0,0 C 67 % 69 % 1003,1 hPa 0,0 l/m 5,8 km/h (2 Bft) SW 225 0 min 11,8 C 17,6 C 6,4 km/h (2 Bft)
21.10.2021 00:20 18,1 C 15,1 C 17,0 C 18,0 C 17,7 C 0,0 C 67 % 69 % 1003,1 hPa 0,0 l/m 5,3 km/h (1 Bft) S 180 0 min 11,9 C 17,7 C 7,1 km/h (2 Bft)
21.10.2021 00:25 17,9 C 15,1 C 16,9 C 17,8 C 17,7 C 0,0 C 66 % 69 % 1003,1 hPa 0,0 l/m 5,3 km/h (1 Bft) SO 135 0 min 11,5 C 17,7 C 16,4 km/h (3 Bft)
21.10.2021 00:30 17,9 C 15,1 C 16,9 C 17,8 C 17,6 C 0,0 C 66 % 68 % 1003,1 hPa 0,0 l/m 5,3 km/h (1 Bft) SO 135 0 min 11,5 C 17,6 C 5,8 km/h (2 Bft)
21.10.2021 00:35 18,0 C 15,1 C 16,9 C 17,9 C 17,7 C 0,0 C 66 % 68 % 1001,9 hPa 0,0 l/m 5,6 km/h (1 Bft) S 180 0 min 11,6 C 17,7 C 6,6 km/h (2 Bft)
21.10.2021 00:40 17,9 C 15,1 C 16,9 C 17,8 C 17,7 C 0,0 C 66 % 69 % 1001,9 hPa 0,0 l/m 5,5 km/h (1 Bft) S 180 0 min 11,5 C 17,7 C 7,7 km/h (2 Bft)
21.10.2021 00:45 17,9 C 15,1 C 16,7 C 17,8 C 17,5 C 0,0 C 67 % 71 % 1001,9 hPa 0,0 l/m 4,2 km/h (1 Bft) S-SO 157 0 min 11,7 C 17,5 C 5,8 km/h (2 Bft)
21.10.2021 00:50 17,7 C 15,1 C 16,7 C 17,6 C 17,4 C 0,0 C 68 % 71 % 1001,9 hPa 0,0 l/m 4,2 km/h (1 Bft) S 180 0 min 11,7 C 17,4 C 11,3 km/h (2 Bft)
21.10.2021 00:55 17,6 C 15,1 C 16,5 C 17,5 C 17,3 C 0,0 C 68 % 71 % 1001,2 hPa 0,0 l/m 3,9 km/h (1 Bft) SW 225 0 min 11,6 C 17,3 C 4,7 km/h (1 Bft)
21.10.2021 01:00 17,6 C 15,1 C 16,5 C 17,5 C 17,3 C 0,0 C 68 % 71 % 1001,2 hPa 0,0 l/m 3,4 km/h (1 Bft) S 180 0 min 11,6 C 17,3 C 3,7 km/h (1 Bft)
21.10.2021 01:05 17,7 C 15,1 C 16,6 C 17,6 C 17,3 C 0,0 C 68 % 71 % 1001,2 hPa 0,0 l/m 3,5 km/h (1 Bft) S-SO 157 0 min 11,7 C 17,3 C 7,2 km/h (2 Bft)
21.10.2021 01:10 17,6 C 15,1 C 16,6 C 17,5 C 17,3 C 0,0 C 69 % 72 % 1001,2 hPa 0,0 l/m 3,4 km/h (1 Bft) S-SW 202 0 min 11,8 C 17,3 C 3,9 km/h (1 Bft)
21.10.2021 01:15 17,5 C 15,1 C 16,4 C 17,4 C 17,1 C 0,0 C 69 % 73 % 1002,6 hPa 0,0 l/m 2,7 km/h (1 Bft) S 180 0 min 11,7 C 17,1 C 10,1 km/h (2 Bft)
21.10.2021 01:20 17,3 C 15,1 C 16,3 C 17,2 C 16,9 C 0,0 C 70 % 74 % 1002,6 hPa 0,0 l/m 2,6 km/h (1 Bft) SW 225 0 min 11,8 C 16,9 C 3,1 km/h (1 Bft)
21.10.2021 01:25 17,2 C 15,1 C 16,2 C 17,1 C 16,8 C 0,0 C 71 % 74 % 1002,6 hPa 0,0 l/m 2,1 km/h (1 Bft) SW 225 0 min 11,9 C 16,8 C 4,5 km/h (1 Bft)
21.10.2021 01:30 17,1 C 15,1 C 16,1 C 17,0 C 16,7 C 0,0 C 71 % 74 % 1002,6 hPa 0,0 l/m 2,6 km/h (1 Bft) S-SW 202 0 min 11,8 C 16,7 C 3,9 km/h (1 Bft)
21.10.2021 01:35 17,1 C 15,1 C 16,0 C 16,9 C 16,6 C 0,0 C 72 % 75 % 1002,5 hPa 0,0 l/m 1,9 km/h (1 Bft) S 180 0 min 12,0 C 16,6 C 3,4 km/h (1 Bft)
21.10.2021 01:40 16,9 C 15,1 C 15,9 C 16,8 C 16,5 C 0,0 C 72 % 75 % 1002,5 hPa 0,0 l/m 1,4 km/h (1 Bft) S-SO 157 0 min 11,8 C 16,5 C 0,0 km/h (0 Bft)
21.10.2021 01:45 16,8 C 15,1 C 15,8 C 16,6 C 16,3 C 0,0 C 73 % 76 % 1002,5 hPa 0,0 l/m 1,1 km/h (1 Bft) W-SW 247 0 min 11,9 C 16,3 C 2,1 km/h (1 Bft)
21.10.2021 01:50 16,7 C 15,1 C 15,7 C 16,5 C 16,2 C 0,0 C 73 % 76 % 1002,5 hPa 0,0 l/m 1,1 km/h (1 Bft) S-SO 157 0 min 11,8 C 16,2 C 1,8 km/h (1 Bft)
21.10.2021 01:55 16,6 C 15,1 C 15,7 C 16,4 C 16,1 C 0,0 C 74 % 77 % 1001,6 hPa 0,0 l/m 1,9 km/h (1 Bft) W-SW 247 0 min 11,9 C 16,1 C 2,4 km/h (1 Bft)
21.10.2021 02:00 16,5 C 15,1 C 15,7 C 16,4 C 16,1 C 0,0 C 74 % 77 % 1001,6 hPa 0,0 l/m 2,1 km/h (1 Bft) S-SW 202 0 min 11,8 C 16,1 C 2,9 km/h (1 Bft)
21.10.2021 02:05 16,4 C 15,1 C 15,6 C 16,3 C 16,1 C 0,0 C 74 % 77 % 1001,6 hPa 0,0 l/m 2,1 km/h (1 Bft) S-SW 202 0 min 11,8 C 16,1 C 4,3 km/h (1 Bft)
21.10.2021 02:10 16,4 C 15,1 C 15,5 C 16,3 C 16,1 C 0,0 C 74 % 78 % 1001,6 hPa 0,0 l/m 2,3 km/h (1 Bft) SO 135 0 min 11,8 C 16,1 C 2,3 km/h (1 Bft)
21.10.2021 02:15 16,4 C 15,2 C 15,5 C 16,3 C 16,1 C 0,0 C 75 % 78 % 1001,4 hPa 0,0 l/m 2,1 km/h (1 Bft) S 180 0 min 12,0 C 16,1 C 6,3 km/h (2 Bft)
21.10.2021 02:20 16,4 C 15,1 C 15,5 C 16,3 C 16,1 C 0,0 C 75 % 78 % 1001,4 hPa 0,0 l/m 2,1 km/h (1 Bft) S 180 0 min 12,0 C 16,1 C 2,1 km/h (1 Bft)
21.10.2021 02:25 16,5 C 15,1 C 15,7 C 16,4 C 16,2 C 0,0 C 76 % 78 % 1001,4 hPa 0,0 l/m 2,7 km/h (1 Bft) SO 135 0 min 12,3 C 16,2 C 2,9 km/h (1 Bft)
21.10.2021 02:30 16,5 C 15,1 C 15,7 C 16,4 C 16,3 C 0,0 C 76 % 79 % 1001,4 hPa 0,0 l/m 3,1 km/h (1 Bft) O-NO 67 0 min 12,3 C 16,3 C 2,6 km/h (1 Bft)
21.10.2021 02:35 16,5 C 15,1 C 15,7 C 16,4 C 16,2 C 0,0 C 76 % 79 % 1001,1 hPa 0,0 l/m 3,1 km/h (1 Bft) SO 135 0 min 12,3 C 16,2 C 11,7 km/h (2 Bft)
21.10.2021 02:40 16,5 C 15,1 C 15,7 C 16,3 C 16,0 C 0,0 C 76 % 79 % 1001,1 hPa 0,0 l/m 3,9 km/h (1 Bft) S 180 0 min 12,3 C 16,0 C 6,8 km/h (2 Bft)
21.10.2021 02:45 16,5 C 15,1 C 15,6 C 16,2 C 15,7 C 0,0 C 76 % 79 % 1001,1 hPa 0,0 l/m 3,5 km/h (1 Bft) SW 225 0 min 12,3 C 15,7 C 9,3 km/h (2 Bft)
21.10.2021 02:50 16,5 C 15,1 C 15,7 C 16,3 C 15,9 C 0,0 C 77 % 79 % 1001,1 hPa 0,0 l/m 3,2 km/h (1 Bft) SO 135 0 min 12,5 C 15,9 C 11,1 km/h (2 Bft)
21.10.2021 02:55 16,5 C 15,1 C 15,7 C 16,4 C 16,1 C 0,0 C 77 % 79 % 1000,4 hPa 0,0 l/m 3,5 km/h (1 Bft) S 180 0 min 12,5 C 16,1 C 6,6 km/h (2 Bft)
21.10.2021 03:00 16,6 C 15,1 C 15,7 C 16,5 C 16,2 C 0,0 C 77 % 79 % 1000,4 hPa 0,0 l/m 3,9 km/h (1 Bft) W-SW 247 0 min 12,5 C 16,2 C 3,9 km/h (1 Bft)
21.10.2021 03:05 16,6 C 15,1 C 15,9 C 16,5 C 16,4 C 0,0 C 77 % 79 % 1000,4 hPa 0,0 l/m 4,3 km/h (1 Bft) S-SO 157 0 min 12,5 C 16,4 C 8,4 km/h (2 Bft)
21.10.2021 03:10 16,7 C 15,1 C 15,8 C 16,5 C 16,0 C 0,0 C 77 % 79 % 1000,4 hPa 0,0 l/m 4,5 km/h (1 Bft) NO 45 0 min 12,6 C 16,0 C 6,0 km/h (2 Bft)
21.10.2021 03:15 16,7 C 15,1 C 15,8 C 16,3 C 15,6 C 0,0 C 77 % 80 % 1000,6 hPa 0,0 l/m 4,2 km/h (1 Bft) W-SW 247 0 min 12,6 C 15,6 C 8,5 km/h (2 Bft)
21.10.2021 03:20 16,7 C 15,1 C 15,8 C 16,4 C 15,8 C 0,0 C 77 % 80 % 1000,6 hPa 0,0 l/m 3,5 km/h (1 Bft) O-NO 67 0 min 12,6 C 15,8 C 7,6 km/h (2 Bft)
21.10.2021 03:25 16,8 C 15,1 C 15,9 C 16,6 C 16,2 C 0,0 C 77 % 80 % 1000,6 hPa 0,0 l/m 4,3 km/h (1 Bft) SO 135 0 min 12,7 C 16,2 C 12,7 km/h (3 Bft)
21.10.2021 03:30 16,9 C 15,1 C 16,0 C 16,8 C 16,5 C 0,0 C 76 % 79 % 1000,6 hPa 0,0 l/m 4,8 km/h (1 Bft) S-SW 202 0 min 12,6 C 16,5 C 4,5 km/h (1 Bft)
21.10.2021 03:35 17,1 C 15,1 C 16,1 C 17,0 C 16,8 C 0,0 C 76 % 79 % 1000,6 hPa 0,0 l/m 3,9 km/h (1 Bft) O 90 0 min 12,8 C 16,8 C 3,4 km/h (1 Bft)
21.10.2021 03:40 17,1 C 15,1 C 16,2 C 17,0 C 16,9 C 0,0 C 76 % 78 % 1000,6 hPa 0,0 l/m 4,0 km/h (1 Bft) SO 135 0 min 12,8 C 16,9 C 7,2 km/h (2 Bft)
21.10.2021 03:45 17,0 C 15,2 C 16,2 C 17,0 C 16,9 C 0,0 C 75 % 78 % 1000,6 hPa 0,0 l/m 4,7 km/h (1 Bft) SO 135 0 min 12,5 C 16,9 C 4,7 km/h (1 Bft)
21.10.2021 03:50 17,1 C 15,2 C 16,1 C 17,0 C 16,7 C 0,0 C 76 % 78 % 1000,6 hPa 0,0 l/m 4,2 km/h (1 Bft) W-SW 247 0 min 12,8 C 16,7 C 4,0 km/h (1 Bft)
21.10.2021 03:55 16,8 C 15,2 C 15,8 C 16,6 C 16,2 C 0,0 C 76 % 79 % 1000,2 hPa 0,0 l/m 3,7 km/h (1 Bft) SO 135 0 min 12,5 C 16,2 C 5,8 km/h (2 Bft)
21.10.2021 04:00 16,7 C 15,2 C 15,7 C 16,4 C 15,8 C 0,0 C 76 % 80 % 1000,2 hPa 0,0 l/m 3,9 km/h (1 Bft) S 180 0 min 12,4 C 15,8 C 6,0 km/h (2 Bft)
21.10.2021 04:05 16,5 C 15,2 C 15,4 C 16,1 C 15,2 C 0,0 C 76 % 80 % 1000,2 hPa 0,0 l/m 3,7 km/h (1 Bft) SO 135 0 min 12,3 C 15,2 C 7,9 km/h (2 Bft)
21.10.2021 04:10 16,3 C 15,3 C 15,0 C 15,8 C 14,7 C 0,0 C 77 % 82 % 1000,2 hPa 0,0 l/m 3,5 km/h (1 Bft) SW 225 0 min 12,3 C 14,7 C 6,3 km/h (2 Bft)
21.10.2021 04:15 15,9 C 15,5 C 14,6 C 15,3 C 14,1 C 0,0 C 78 % 83 % 999,9 hPa 0,0 l/m 2,9 km/h (1 Bft) N-NO 22 0 min 12,1 C 14,1 C 0,0 km/h (0 Bft)
21.10.2021 04:20 15,6 C 15,5 C 14,3 C 15,1 C 14,0 C 0,0 C 79 % 85 % 999,9 hPa 0,0 l/m 2,1 km/h (1 Bft) S 180 0 min 12,0 C 14,0 C 1,9 km/h (1 Bft)
21.10.2021 04:25 15,5 C 15,5 C 14,1 C 14,9 C 13,8 C 0,0 C 80 % 86 % 999,9 hPa 0,0 l/m 1,0 km/h (0 Bft) O-NO 67 0 min 12,1 C 13,8 C 1,6 km/h (1 Bft)
21.10.2021 04:30 15,2 C 15,5 C 13,9 C 14,7 C 13,7 C 0,0 C 80 % 87 % 999,9 hPa 0,0 l/m 1,1 km/h (1 Bft) O-SO 112 0 min 11,8 C 13,7 C 3,5 km/h (1 Bft)
21.10.2021 04:35 15,1 C 15,5 C 13,7 C 14,6 C 13,5 C 0,0 C 81 % 87 % 998,2 hPa 0,0 l/m 1,4 km/h (1 Bft) O-SO 112 0 min 11,9 C 13,5 C 2,6 km/h (1 Bft)
21.10.2021 04:40 14,9 C 15,4 C 13,6 C 14,4 C 13,5 C 0,0 C 81 % 88 % 998,2 hPa 0,0 l/m 1,1 km/h (1 Bft) W-SW 247 0 min 11,7 C 13,5 C 4,3 km/h (1 Bft)
21.10.2021 04:45 14,7 C 15,3 C 13,5 C 14,2 C 13,3 C 0,0 C 82 % 88 % 998,2 hPa 0,0 l/m 1,3 km/h (1 Bft) O 90 0 min 11,7 C 13,3 C 1,8 km/h (1 Bft)
21.10.2021 04:50 14,7 C 15,3 C 13,5 C 14,2 C 13,2 C 0,0 C 82 % 88 % 998,2 hPa 0,0 l/m 1,9 km/h (1 Bft) W-NW 292 0 min 11,7 C 13,2 C 0,0 km/h (0 Bft)
21.10.2021 04:55 14,8 C 15,3 C 13,7 C 14,2 C 13,1 C 0,0 C 82 % 87 % 997,9 hPa 0,0 l/m 2,9 km/h (1 Bft) W-SW 247 0 min 11,8 C 13,1 C 2,4 km/h (1 Bft)
21.10.2021 05:00 14,8 C 15,3 C 13,7 C 14,2 C 13,1 C 0,0 C 81 % 87 % 997,9 hPa 0,0 l/m 3,2 km/h (1 Bft) S 180 0 min 11,6 C 13,1 C 6,9 km/h (2 Bft)
21.10.2021 05:05 14,9 C 15,3 C 13,7 C 14,4 C 13,5 C 0,0 C 81 % 86 % 997,9 hPa 0,0 l/m 2,7 km/h (1 Bft) S 180 0 min 11,7 C 13,5 C 2,1 km/h (1 Bft)
21.10.2021 05:10 14,9 C 15,2 C 13,8 C 14,5 C 13,7 C 0,0 C 80 % 86 % 997,9 hPa 0,0 l/m 1,9 km/h (1 Bft) W-SW 247 0 min 11,5 C 13,7 C 2,9 km/h (1 Bft)
21.10.2021 05:15 14,9 C 15,2 C 13,8 C 14,5 C 13,8 C 0,0 C 80 % 86 % 995,9 hPa 0,0 l/m 1,1 km/h (1 Bft) S 180 0 min 11,5 C 13,8 C 1,8 km/h (1 Bft)
21.10.2021 05:20 14,9 C 15,2 C 13,9 C 14,6 C 13,9 C 0,0 C 80 % 86 % 995,9 hPa 0,0 l/m 1,8 km/h (1 Bft) N-NO 22 0 min 11,5 C 13,9 C 0,0 km/h (0 Bft)
21.10.2021 05:25 15,1 C 15,2 C 13,9 C 14,8 C 14,3 C 0,0 C 80 % 85 % 995,9 hPa 0,0 l/m 2,1 km/h (1 Bft) O 90 0 min 11,7 C 14,3 C 1,6 km/h (1 Bft)
21.10.2021 05:30 15,1 C 15,2 C 13,9 C 14,9 C 14,5 C 0,0 C 79 % 85 % 995,9 hPa 0,0 l/m 1,6 km/h (1 Bft) SO 135 0 min 11,5 C 14,5 C 2,7 km/h (1 Bft)
21.10.2021 05:35 15,2 C 15,2 C 14,0 C 15,1 C 14,8 C 0,0 C 79 % 84 % 996,1 hPa 0,0 l/m 1,9 km/h (1 Bft) S-SO 157 0 min 11,6 C 14,8 C 3,2 km/h (1 Bft)
21.10.2021 05:40 15,2 C 15,2 C 14,1 C 15,1 C 15,0 C 0,0 C 78 % 84 % 996,1 hPa 0,0 l/m 3,1 km/h (1 Bft) SW 225 0 min 11,4 C 15,0 C 6,6 km/h (2 Bft)
21.10.2021 05:45 15,5 C 15,2 C 14,3 C 15,5 C 15,4 C 0,0 C 77 % 83 % 996,1 hPa 0,0 l/m 3,5 km/h (1 Bft) S 180 0 min 11,5 C 15,4 C 8,2 km/h (2 Bft)
21.10.2021 05:50 15,6 C 15,2 C 14,4 C 15,6 C 15,6 C 0,0 C 77 % 82 % 996,1 hPa 0,0 l/m 3,7 km/h (1 Bft) S-SO 157 0 min 11,6 C 15,6 C 9,0 km/h (2 Bft)
21.10.2021 05:55 15,9 C 15,2 C 14,6 C 15,9 C 15,9 C 0,0 C 76 % 81 % 995,3 hPa 0,0 l/m 4,8 km/h (1 Bft) SO 135 0 min 11,7 C 15,9 C 15,3 km/h (3 Bft)
21.10.2021 06:00 16,0 C 15,2 C 14,8 C 16,1 C 16,1 C 0,1 C 75 % 80 % 995,3 hPa 0,0 l/m 5,3 km/h (1 Bft) S 180 0 min 11,6 C 16,1 C 6,9 km/h (2 Bft)
21.10.2021 06:05 16,3 C 15,2 C 14,8 C 16,3 C 16,2 C 0,0 C 74 % 80 % 995,3 hPa 0,0 l/m 5,0 km/h (1 Bft) S 180 0 min 11,7 C 16,2 C 27,2 km/h (4 Bft)
21.10.2021 06:10 16,2 C 15,2 C 15,0 C 16,3 C 16,3 C 0,1 C 74 % 79 % 995,3 hPa 0,0 l/m 4,0 km/h (1 Bft) SW 225 0 min 11,6 C 16,3 C 8,4 km/h (2 Bft)
21.10.2021 06:15 16,5 C 15,1 C 15,2 C 16,5 C 16,5 C 0,0 C 72 % 78 % 995,3 hPa 0,0 l/m 5,3 km/h (1 Bft) NW 315 0 min 11,4 C 16,5 C 6,1 km/h (2 Bft)
21.10.2021 06:20 16,6 C 15,1 C 15,3 C 16,7 C 16,7 C 0,1 C 72 % 76 % 995,3 hPa 0,0 l/m 6,6 km/h (2 Bft) SW 225 0 min 11,5 C 16,7 C 11,3 km/h (2 Bft)
21.10.2021 06:25 16,8 C 15,1 C 15,5 C 16,9 C 16,9 C 0,1 C 71 % 76 % 995,3 hPa 0,0 l/m 6,8 km/h (2 Bft) W-SW 247 0 min 11,5 C 16,9 C 7,7 km/h (2 Bft)
21.10.2021 06:30 17,1 C 15,1 C 15,7 C 17,1 C 17,1 C 0,0 C 70 % 75 % 995,3 hPa 0,0 l/m 6,6 km/h (2 Bft) O 90 0 min 11,6 C 17,1 C 7,1 km/h (2 Bft)
21.10.2021 06:35 17,2 C 15,1 C 15,9 C 17,3 C 17,3 C 0,1 C 69 % 74 % 994,4 hPa 0,0 l/m 6,0 km/h (2 Bft) W 270 0 min 11,5 C 17,3 C 6,0 km/h (2 Bft)
21.10.2021 06:40 17,3 C 15,1 C 15,9 C 17,4 C 17,4 C 0,1 C 69 % 74 % 994,4 hPa 0,0 l/m 5,6 km/h (1 Bft) W-SW 247 0 min 11,6 C 17,4 C 5,5 km/h (1 Bft)
21.10.2021 06:45 17,3 C 15,1 C 16,0 C 17,4 C 17,4 C 0,1 C 69 % 74 % 994,4 hPa 0,0 l/m 5,8 km/h (2 Bft) S 180 0 min 11,6 C 17,4 C 9,5 km/h (2 Bft)
21.10.2021 06:50 17,3 C 15,1 C 16,0 C 17,4 C 17,4 C 0,1 C 69 % 74 % 994,4 hPa 0,0 l/m 6,3 km/h (2 Bft) SO 135 0 min 11,6 C 17,4 C 7,6 km/h (2 Bft)
21.10.2021 06:55 17,4 C 15,1 C 16,0 C 17,4 C 17,4 C 0,0 C 69 % 74 % 995,2 hPa 0,0 l/m 6,1 km/h (2 Bft) S-SO 157 0 min 11,7 C 17,4 C 5,5 km/h (1 Bft)
21.10.2021 07:00 17,3 C 15,1 C 15,9 C 17,3 C 17,3 C 0,0 C 69 % 74 % 995,2 hPa 0,0 l/m 5,0 km/h (1 Bft) N-NO 22 0 min 11,6 C 17,3 C 7,9 km/h (2 Bft)
21.10.2021 07:05 17,3 C 15,1 C 15,9 C 17,2 C 16,9 C 0,0 C 69 % 74 % 995,2 hPa 0,0 l/m 4,7 km/h (1 Bft) W-SW 247 0 min 11,6 C 16,9 C 3,9 km/h (1 Bft)
21.10.2021 07:10 17,2 C 15,1 C 15,9 C 17,1 C 16,9 C 0,0 C 69 % 74 % 995,2 hPa 0,0 l/m 5,3 km/h (1 Bft) S 180 0 min 11,5 C 16,9 C 10,6 km/h (2 Bft)
21.10.2021 07:15 17,3 C 15,1 C 16,1 C 17,2 C 17,1 C 0,0 C 69 % 74 % 994,8 hPa 0,0 l/m 6,9 km/h (2 Bft) N 360 0 min 11,6 C 17,1 C 12,6 km/h (3 Bft)
21.10.2021 07:20 17,3 C 15,1 C 16,1 C 17,3 C 17,2 C 0,0 C 69 % 74 % 994,8 hPa 0,0 l/m 6,4 km/h (2 Bft) SO 135 0 min 11,6 C 17,2 C 4,0 km/h (1 Bft)
21.10.2021 07:25 17,4 C 15,1 C 16,2 C 17,3 C 17,2 C 0,0 C 69 % 74 % 994,8 hPa 0,0 l/m 7,6 km/h (2 Bft) SO 135 0 min 11,7 C 17,2 C 13,5 km/h (3 Bft)
21.10.2021 07:30 17,5 C 15,1 C 16,2 C 17,4 C 17,3 C 0,0 C 69 % 74 % 994,8 hPa 0,0 l/m 8,4 km/h (2 Bft) S-SW 202 0 min 11,7 C 17,3 C 7,7 km/h (2 Bft)
21.10.2021 07:35 17,3 C 15,1 C 16,2 C 17,3 C 17,3 C 0,0 C 69 % 74 % 994,2 hPa 0,0 l/m 7,9 km/h (2 Bft) S 180 0 min 11,6 C 17,3 C 23,3 km/h (4 Bft)
21.10.2021 07:40 17,3 C 15,1 C 16,3 C 17,3 C 17,2 C 0,0 C 69 % 73 % 994,2 hPa 0,0 l/m 8,0 km/h (2 Bft) SW 225 0 min 11,6 C 17,2 C 21,1 km/h (4 Bft)
21.10.2021 07:45 17,3 C 15,1 C 16,3 C 17,3 C 17,2 C 0,0 C 69 % 71 % 994,2 hPa 0,0 l/m 9,2 km/h (2 Bft) W-SW 247 0 min 11,6 C 17,2 C 29,8 km/h (5 Bft)
21.10.2021 07:50 17,3 C 15,1 C 16,3 C 17,2 C 17,1 C 0,0 C 66 % 69 % 994,2 hPa 0,0 l/m 9,8 km/h (2 Bft) SW 225 0 min 10,9 C 17,1 C 10,8 km/h (2 Bft)
21.10.2021 07:55 17,1 C 15,1 C 16,0 C 17,0 C 16,7 C 0,0 C 66 % 69 % 994,4 hPa 0,7 l/m 9,2 km/h (2 Bft) S 180 0 min 10,7 C 16,7 C 15,6 km/h (3 Bft)
21.10.2021 08:00 16,8 C 15,1 C 15,5 C 16,5 C 15,3 C 0,0 C 66 % 71 % 994,4 hPa 0,0 l/m 8,4 km/h (2 Bft) O-SO 112 0 min 10,4 C 15,3 C 5,0 km/h (1 Bft)
21.10.2021 08:05 16,3 C 15,1 C 14,7 C 15,5 C 14,0 C 0,0 C 68 % 74 % 994,4 hPa 0,0 l/m 7,6 km/h (2 Bft) S 180 0 min 10,4 C 14,0 C 8,7 km/h (2 Bft)
21.10.2021 08:10 15,8 C 15,1 C 14,5 C 15,0 C 13,3 C 0,0 C 69 % 74 % 994,4 hPa 0,0 l/m 6,8 km/h (2 Bft) W 270 0 min 10,1 C 13,3 C 6,1 km/h (2 Bft)
21.10.2021 08:15 15,6 C 15,1 C 14,5 C 14,9 C 13,6 C 0,0 C 69 % 74 % 995,2 hPa 0,0 l/m 5,5 km/h (1 Bft) S-SO 157 0 min 9,9 C 13,6 C 6,0 km/h (2 Bft)
21.10.2021 08:20 15,5 C 15,1 C 14,5 C 14,9 C 13,8 C 0,0 C 69 % 73 % 995,2 hPa 0,0 l/m 4,8 km/h (1 Bft) S-SW 202 0 min 9,8 C 13,8 C 6,0 km/h (2 Bft)
21.10.2021 08:25 15,5 C 15,1 C 14,5 C 15,1 C 14,2 C 0,0 C 69 % 72 % 995,2 hPa 0,0 l/m 5,5 km/h (1 Bft) SO 135 0 min 9,8 C 14,2 C 12,9 km/h (3 Bft)
21.10.2021 08:30 15,4 C 15,1 C 14,5 C 15,1 C 14,4 C 0,0 C 68 % 72 % 995,2 hPa 0,0 l/m 5,5 km/h (1 Bft) S-SW 202 0 min 9,5 C 14,4 C 10,5 km/h (2 Bft)
21.10.2021 08:35 15,4 C 15,1 C 14,4 C 15,2 C 14,8 C 0,0 C 68 % 72 % 995,6 hPa 0,0 l/m 5,6 km/h (1 Bft) SO 135 0 min 9,5 C 14,8 C 8,4 km/h (2 Bft)
21.10.2021 08:40 15,5 C 15,1 C 14,5 C 15,3 C 14,9 C 0,0 C 68 % 72 % 995,6 hPa 0,0 l/m 5,8 km/h (2 Bft) SW 225 0 min 9,6 C 14,9 C 9,3 km/h (2 Bft)
21.10.2021 08:45 15,5 C 15,1 C 14,5 C 15,4 C 15,1 C 0,0 C 68 % 72 % 995,6 hPa 0,0 l/m 6,1 km/h (2 Bft) W-SW 247 0 min 9,6 C 15,1 C 11,4 km/h (2 Bft)
21.10.2021 08:50 15,4 C 15,1 C 14,7 C 15,4 C 15,3 C 0,0 C 68 % 71 % 995,6 hPa 0,0 l/m 6,8 km/h (2 Bft) NW 315 0 min 9,5 C 15,3 C 7,6 km/h (2 Bft)
21.10.2021 08:55 15,4 C 15,1 C 14,6 C 15,5 C 15,5 C 0,1 C 67 % 71 % 995,6 hPa 0,0 l/m 6,8 km/h (2 Bft) SW 225 0 min 9,3 C 15,5 C 11,7 km/h (2 Bft)
21.10.2021 09:00 15,5 C 15,1 C 14,7 C 15,6 C 15,6 C 0,1 C 66 % 69 % 995,6 hPa 0,0 l/m 7,6 km/h (2 Bft) S 180 0 min 9,2 C 15,6 C 9,3 km/h (2 Bft)
21.10.2021 09:05 15,4 C 15,1 C 14,7 C 15,5 C 15,3 C 0,1 C 66 % 69 % 995,6 hPa 0,0 l/m 10,8 km/h (2 Bft) SW 225 0 min 9,1 C 15,3 C 21,4 km/h (4 Bft)
21.10.2021 09:10 15,5 C 15,0 C 14,7 C 15,4 C 15,3 C 0,0 C 66 % 69 % 995,6 hPa 0,0 l/m 10,5 km/h (2 Bft) S 180 0 min 9,2 C 15,3 C 10,1 km/h (2 Bft)
21.10.2021 09:15 15,3 C 15,0 C 14,6 C 15,3 C 15,3 C 0,0 C 66 % 68 % 996,1 hPa 0,0 l/m 9,2 km/h (2 Bft) SW 225 0 min 9,0 C 15,3 C 11,3 km/h (2 Bft)
21.10.2021 09:20 15,2 C 15,0 C 14,5 C 15,3 C 15,2 C 0,1 C 65 % 67 % 996,1 hPa 0,0 l/m 9,0 km/h (2 Bft) SW 225 0 min 8,7 C 15,2 C 21,7 km/h (4 Bft)
21.10.2021 09:25 15,3 C 15,0 C 14,3 C 15,2 C 14,7 C 0,0 C 63 % 65 % 996,1 hPa 0,0 l/m 12,1 km/h (2 Bft) W 270 0 min 8,3 C 14,7 C 20,0 km/h (4 Bft)
21.10.2021 09:30 15,2 C 15,0 C 14,3 C 15,1 C 14,6 C 0,0 C 62 % 65 % 996,1 hPa 0,0 l/m 12,6 km/h (3 Bft) S 180 0 min 8,0 C 14,6 C 14,0 km/h (3 Bft)
21.10.2021 09:35 15,1 C 15,0 C 14,3 C 14,9 C 14,6 C 0,0 C 62 % 65 % 996,4 hPa 0,0 l/m 9,8 km/h (2 Bft) SW 225 0 min 7,9 C 14,6 C 16,7 km/h (3 Bft)
21.10.2021 09:40 15,1 C 15,0 C 14,1 C 15,0 C 14,8 C 0,0 C 62 % 65 % 996,4 hPa 0,0 l/m 7,7 km/h (2 Bft) S-SO 157 0 min 7,9 C 14,8 C 10,1 km/h (2 Bft)
21.10.2021 09:45 15,1 C 15,0 C 14,2 C 15,0 C 14,9 C 0,0 C 62 % 65 % 996,4 hPa 0,0 l/m 6,8 km/h (2 Bft) S-SW 202 0 min 7,9 C 14,9 C 7,2 km/h (2 Bft)
21.10.2021 09:50 15,1 C 15,0 C 14,4 C 15,1 C 15,1 C 0,0 C 63 % 66 % 996,4 hPa 0,0 l/m 6,4 km/h (2 Bft) S-SO 157 0 min 8,1 C 15,1 C 6,8 km/h (2 Bft)
21.10.2021 09:55 15,1 C 14,9 C 14,7 C 15,7 C 15,7 C 0,6 C 63 % 65 % 996,0 hPa 0,0 l/m 7,1 km/h (2 Bft) SW 225 0 min 8,1 C 15,7 C 7,7 km/h (2 Bft)
21.10.2021 10:00 15,2 C 14,9 C 14,7 C 15,8 C 15,8 C 0,6 C 63 % 64 % 996,0 hPa 0,0 l/m 7,7 km/h (2 Bft) S-SW 202 0 min 8,2 C 15,8 C 19,2 km/h (3 Bft)
21.10.2021 10:05 15,3 C 14,9 C 14,8 C 15,9 C 15,9 C 0,6 C 62 % 63 % 996,0 hPa 0,0 l/m 8,2 km/h (2 Bft) W 270 0 min 8,1 C 15,9 C 10,5 km/h (2 Bft)
21.10.2021 10:10 15,2 C 14,9 C 14,8 C 15,9 C 15,8 C 0,7 C 62 % 63 % 996,0 hPa 0,0 l/m 8,7 km/h (2 Bft) W-SW 247 0 min 8,0 C 15,8 C 9,0 km/h (2 Bft)
21.10.2021 10:15 15,1 C 14,9 C 14,8 C 16,1 C 16,1 C 1,0 C 62 % 64 % 996,8 hPa 0,0 l/m 7,9 km/h (2 Bft) S 180 0 min 7,9 C 16,1 C 13,7 km/h (3 Bft)
21.10.2021 10:20 15,0 C 14,9 C 14,7 C 15,9 C 15,9 C 0,9 C 62 % 64 % 996,8 hPa 0,0 l/m 7,9 km/h (2 Bft) S 180 0 min 7,8 C 15,9 C 18,2 km/h (3 Bft)
21.10.2021 10:25 15,0 C 14,9 C 14,6 C 15,8 C 15,7 C 0,8 C 62 % 63 % 996,8 hPa 0,0 l/m 8,5 km/h (2 Bft) W 270 0 min 7,8 C 15,7 C 10,1 km/h (2 Bft)
21.10.2021 10:30 14,9 C 14,9 C 14,6 C 15,7 C 15,6 C 0,8 C 62 % 63 % 996,8 hPa 0,0 l/m 9,0 km/h (2 Bft) N-NO 22 0 min 7,7 C 15,6 C 13,5 km/h (3 Bft)
21.10.2021 10:35 14,9 C 14,9 C 14,5 C 15,6 C 15,6 C 0,7 C 62 % 63 % 996,6 hPa 0,0 l/m 8,7 km/h (2 Bft) S-SO 157 0 min 7,7 C 15,6 C 23,7 km/h (4 Bft)
21.10.2021 10:40 14,9 C 14,8 C 14,6 C 15,7 C 15,7 C 0,8 C 62 % 63 % 996,6 hPa 0,0 l/m 8,0 km/h (2 Bft) SO 135 0 min 7,7 C 15,7 C 5,0 km/h (1 Bft)
21.10.2021 10:45 14,9 C 14,8 C 14,6 C 15,8 C 15,8 C 0,9 C 62 % 63 % 996,6 hPa 0,0 l/m 8,2 km/h (2 Bft) SO 135 0 min 7,7 C 15,8 C 11,6 km/h (2 Bft)
21.10.2021 10:50 14,8 C 14,8 C 14,5 C 15,6 C 15,6 C 0,8 C 62 % 63 % 996,6 hPa 0,0 l/m 7,9 km/h (2 Bft) O-NO 67 0 min 7,6 C 15,6 C 3,9 km/h (1 Bft)
21.10.2021 10:55 14,7 C 14,8 C 14,7 C 15,7 C 15,7 C 1,0 C 62 % 63 % 996,9 hPa 0,0 l/m 7,7 km/h (2 Bft) N-NW 337 0 min 7,5 C 15,7 C 8,9 km/h (2 Bft)
21.10.2021 11:00 14,7 C 14,8 C 14,6 C 15,7 C 15,7 C 1,0 C 63 % 63 % 996,9 hPa 0,0 l/m 8,5 km/h (2 Bft) SW 225 0 min 7,7 C 15,7 C 14,5 km/h (3 Bft)
21.10.2021 11:05 14,6 C 14,8 C 14,5 C 15,5 C 15,2 C 0,9 C 63 % 64 % 996,9 hPa 0,0 l/m 10,6 km/h (2 Bft) N-NO 22 0 min 7,6 C 15,2 C 4,8 km/h (1 Bft)
21.10.2021 11:10 14,7 C 14,8 C 14,5 C 15,2 C 15,2 C 0,5 C 63 % 64 % 996,9 hPa 0,0 l/m 10,9 km/h (2 Bft) S-SO 157 0 min 7,7 C 15,2 C 15,4 km/h (3 Bft)
21.10.2021 11:15 14,7 C 14,8 C 14,6 C 15,2 C 15,2 C 0,5 C 64 % 64 % 996,8 hPa 0,0 l/m 10,8 km/h (2 Bft) NO 45 0 min 8,0 C 15,2 C 10,6 km/h (2 Bft)
21.10.2021 11:20 14,6 C 14,8 C 14,7 C 15,4 C 15,3 C 0,8 C 64 % 64 % 996,8 hPa 0,0 l/m 10,9 km/h (2 Bft) S 180 0 min 7,9 C 15,3 C 11,3 km/h (2 Bft)
21.10.2021 11:25 14,7 C 14,7 C 14,5 C 15,4 C 15,2 C 0,7 C 63 % 64 % 996,8 hPa 0,0 l/m 11,4 km/h (2 Bft) W-SW 247 0 min 7,7 C 15,2 C 12,2 km/h (2 Bft)
21.10.2021 11:30 14,5 C 14,7 C 14,3 C 15,1 C 14,8 C 0,6 C 64 % 64 % 996,8 hPa 0,0 l/m 10,6 km/h (2 Bft) W-SW 247 0 min 7,8 C 14,8 C 15,1 km/h (3 Bft)
21.10.2021 11:35 14,4 C 14,7 C 14,3 C 14,8 C 14,8 C 0,4 C 64 % 64 % 997,9 hPa 0,0 l/m 9,0 km/h (2 Bft) W-SW 247 0 min 7,7 C 14,8 C 13,2 km/h (3 Bft)
21.10.2021 11:40 14,5 C 14,7 C 14,2 C 14,8 C 14,8 C 0,3 C 64 % 64 % 997,9 hPa 0,0 l/m 8,5 km/h (2 Bft) NW 315 0 min 7,8 C 14,8 C 15,1 km/h (3 Bft)
21.10.2021 11:45 14,4 C 14,7 C 14,3 C 14,8 C 14,8 C 0,4 C 64 % 64 % 997,9 hPa 0,0 l/m 9,7 km/h (2 Bft) O-SO 112 0 min 7,7 C 14,8 C 31,9 km/h (5 Bft)
21.10.2021 11:50 14,4 C 14,7 C 14,1 C 14,8 C 14,5 C 0,4 C 64 % 64 % 997,9 hPa 0,0 l/m 10,6 km/h (2 Bft) W-SW 247 0 min 7,7 C 14,5 C 16,3 km/h (3 Bft)
21.10.2021 11:55 14,3 C 14,7 C 13,9 C 14,5 C 14,3 C 0,2 C 64 % 66 % 998,2 hPa 0,0 l/m 9,8 km/h (2 Bft) SW 225 0 min 7,6 C 14,3 C 18,5 km/h (3 Bft)
21.10.2021 12:00 14,1 C 14,7 C 13,9 C 14,2 C 13,9 C 0,1 C 65 % 66 % 998,2 hPa 0,0 l/m 11,3 km/h (2 Bft) SW 225 0 min 7,6 C 13,9 C 26,2 km/h (4 Bft)
21.10.2021 12:05 14,1 C 14,7 C 13,9 C 14,2 C 14,1 C 0,1 C 65 % 66 % 998,2 hPa 0,0 l/m 11,3 km/h (2 Bft) N-NW 337 0 min 7,6 C 14,1 C 11,9 km/h (2 Bft)
21.10.2021 12:10 14,1 C 14,6 C 13,9 C 14,1 C 14,1 C 0,0 C 65 % 67 % 998,2 hPa 0,0 l/m 11,6 km/h (2 Bft) S 180 0 min 7,6 C 14,1 C 11,7 km/h (2 Bft)
21.10.2021 12:15 14,1 C 14,6 C 13,9 C 14,2 C 13,9 C 0,1 C 65 % 66 % 998,8 hPa 0,0 l/m 11,3 km/h (2 Bft) SW 225 0 min 7,6 C 13,9 C 19,5 km/h (3 Bft)
21.10.2021 12:20 14,1 C 14,6 C 13,9 C 14,2 C 14,0 C 0,1 C 65 % 67 % 998,8 hPa 0,0 l/m 12,2 km/h (2 Bft) SW 225 0 min 7,6 C 14,0 C 20,1 km/h (4 Bft)
21.10.2021 12:25 14,0 C 14,6 C 13,8 C 14,0 C 13,6 C 0,0 C 66 % 67 % 998,8 hPa 0,0 l/m 11,9 km/h (2 Bft) SW 225 0 min 7,7 C 13,6 C 14,3 km/h (3 Bft)
21.10.2021 12:30 13,9 C 14,6 C 13,7 C 13,9 C 13,5 C 0,0 C 67 % 69 % 998,8 hPa 0,0 l/m 11,9 km/h (2 Bft) S 180 0 min 7,9 C 13,5 C 27,8 km/h (4 Bft)
21.10.2021 12:35 13,7 C 14,6 C 13,3 C 13,5 C 12,3 C 0,0 C 69 % 71 % 999,1 hPa 0,0 l/m 13,7 km/h (3 Bft) S 180 0 min 8,1 C 12,3 C 33,6 km/h (5 Bft)
21.10.2021 12:40 13,4 C 14,6 C 13,2 C 13,1 C 11,9 C 0,0 C 69 % 72 % 999,1 hPa 0,0 l/m 14,5 km/h (3 Bft) N 360 0 min 7,8 C 11,9 C 17,4 km/h (3 Bft)
21.10.2021 12:45 13,2 C 14,6 C 12,9 C 12,9 C 11,6 C 0,0 C 69 % 72 % 999,1 hPa 0,0 l/m 15,3 km/h (3 Bft) SW 225 0 min 7,6 C 11,6 C 37,8 km/h (5 Bft)
21.10.2021 12:50 13,2 C 14,6 C 12,8 C 12,9 C 11,7 C 0,0 C 68 % 71 % 999,1 hPa 0,0 l/m 16,7 km/h (3 Bft) W-SW 247 0 min 7,4 C 11,7 C 20,1 km/h (4 Bft)
21.10.2021 12:55 13,2 C 14,5 C 12,7 C 12,9 C 12,0 C 0,0 C 69 % 71 % 1001,2 hPa 0,0 l/m 14,2 km/h (3 Bft) S-SW 202 0 min 7,6 C 12,0 C 11,4 km/h (2 Bft)
21.10.2021 13:00 13,1 C 14,5 C 12,8 C 12,9 C 12,3 C 0,0 C 68 % 70 % 1001,2 hPa 0,0 l/m 13,0 km/h (3 Bft) W-SW 247 0 min 7,3 C 12,3 C 14,3 km/h (3 Bft)
21.10.2021 13:05 13,2 C 14,5 C 12,8 C 12,9 C 12,3 C 0,0 C 66 % 68 % 1001,2 hPa 0,0 l/m 13,5 km/h (3 Bft) W-SW 247 0 min 7,0 C 12,3 C 19,5 km/h (3 Bft)
21.10.2021 13:10 13,2 C 14,5 C 12,8 C 12,9 C 12,3 C 0,0 C 66 % 68 % 1001,2 hPa 0,0 l/m 13,5 km/h (3 Bft) W-SW 247 0 min 7,0 C 12,3 C 19,5 km/h (3 Bft)
21.10.2021 13:15 13,2 C 14,5 C 13,0 C 12,9 C 12,3 C 0,0 C 63 % 64 % 1002,4 hPa 0,0 l/m 13,5 km/h (3 Bft) W-SW 247 0 min 6,3 C 12,3 C 19,5 km/h (3 Bft)
21.10.2021 13:20 13,3 C 14,5 C 13,1 C 13,2 C 12,9 C 0,0 C 62 % 64 % 1002,4 hPa 0,0 l/m 14,6 km/h (3 Bft) S 180 0 min 6,2 C 12,9 C 12,9 km/h (3 Bft)
21.10.2021 13:25 13,3 C 14,5 C 13,2 C 13,3 C 13,0 C 0,0 C 63 % 64 % 1002,4 hPa 0,0 l/m 15,0 km/h (3 Bft) W-SW 247 0 min 6,4 C 13,0 C 14,6 km/h (3 Bft)
21.10.2021 13:30 13,3 C 14,5 C 13,2 C 13,4 C 13,1 C 0,1 C 62 % 63 % 1002,4 hPa 0,0 l/m 15,1 km/h (3 Bft) W-SW 247 0 min 6,2 C 13,1 C 20,1 km/h (4 Bft)
21.10.2021 13:35 13,4 C 14,5 C 13,3 C 13,3 C 13,1 C 0,0 C 62 % 63 % 1002,9 hPa 0,0 l/m 13,5 km/h (3 Bft) W 270 0 min 6,3 C 13,1 C 26,4 km/h (4 Bft)
21.10.2021 13:40 13,5 C 14,5 C 13,3 C 13,5 C 13,3 C 0,0 C 62 % 62 % 1002,9 hPa 0,0 l/m 13,2 km/h (3 Bft) S-SO 157 0 min 6,4 C 13,3 C 14,8 km/h (3 Bft)
21.10.2021 13:45 13,5 C 14,4 C 13,3 C 13,4 C 13,3 C 0,0 C 61 % 62 % 1002,9 hPa 0,0 l/m 14,0 km/h (3 Bft) SW 225 0 min 6,1 C 13,3 C 15,1 km/h (3 Bft)
21.10.2021 13:50 13,3 C 14,4 C 13,3 C 13,3 C 13,3 C 0,0 C 61 % 62 % 1002,9 hPa 0,0 l/m 12,9 km/h (3 Bft) S-SW 202 0 min 5,9 C 13,3 C 9,0 km/h (2 Bft)
21.10.2021 13:55 13,2 C 14,4 C 13,1 C 13,5 C 13,2 C 0,3 C 62 % 63 % 1002,8 hPa 0,0 l/m 11,4 km/h (2 Bft) SW 225 0 min 6,1 C 13,2 C 9,5 km/h (2 Bft)
21.10.2021 14:00 13,3 C 14,4 C 13,1 C 13,6 C 13,5 C 0,3 C 62 % 63 % 1002,8 hPa 0,0 l/m 9,5 km/h (2 Bft) SW 225 0 min 6,2 C 13,5 C 14,0 km/h (3 Bft)
21.10.2021 14:05 13,5 C 14,4 C 13,4 C 13,9 C 13,8 C 0,4 C 63 % 64 % 1002,8 hPa 0,0 l/m 9,7 km/h (2 Bft) SW 225 0 min 6,6 C 13,8 C 9,7 km/h (2 Bft)
21.10.2021 14:10 13,4 C 14,4 C 13,5 C 14,0 C 13,9 C 0,6 C 64 % 64 % 1002,8 hPa 0,0 l/m 9,8 km/h (2 Bft) W 270 0 min 6,7 C 13,9 C 11,3 km/h (2 Bft)
21.10.2021 14:15 13,5 C 14,4 C 13,6 C 14,2 C 14,1 C 0,7 C 62 % 63 % 1003,8 hPa 0,0 l/m 9,3 km/h (2 Bft) SW 225 0 min 6,4 C 14,1 C 10,5 km/h (2 Bft)
21.10.2021 14:20 13,4 C 14,4 C 13,6 C 14,4 C 14,4 C 1,0 C 63 % 63 % 1003,8 hPa 0,0 l/m 8,5 km/h (2 Bft) W-SW 247 0 min 6,5 C 14,4 C 15,4 km/h (3 Bft)
21.10.2021 14:25 13,5 C 14,4 C 13,5 C 14,4 C 14,4 C 0,9 C 62 % 62 % 1003,8 hPa 0,0 l/m 7,4 km/h (2 Bft) S-SW 202 0 min 6,4 C 14,4 C 8,9 km/h (2 Bft)
21.10.2021 14:30 13,5 C 14,3 C 13,5 C 14,4 C 14,4 C 0,9 C 61 % 62 % 1003,8 hPa 0,0 l/m 8,2 km/h (2 Bft) S-SW 202 0 min 6,1 C 14,4 C 9,3 km/h (2 Bft)
21.10.2021 14:35 13,5 C 14,3 C 13,5 C 14,6 C 14,6 C 1,1 C 61 % 62 % 1004,1 hPa 0,0 l/m 8,0 km/h (2 Bft) W-SW 247 0 min 6,1 C 14,6 C 6,4 km/h (2 Bft)
21.10.2021 14:40 13,4 C 14,3 C 13,7 C 14,7 C 14,7 C 1,3 C 60 % 60 % 1004,1 hPa 0,0 l/m 8,5 km/h (2 Bft) W-SW 247 0 min 5,8 C 14,7 C 23,2 km/h (4 Bft)
21.10.2021 14:45 13,3 C 14,3 C 13,5 C 14,4 C 14,0 C 1,1 C 57 % 57 % 1004,1 hPa 0,0 l/m 11,1 km/h (2 Bft) S-SW 202 0 min 5,0 C 14,0 C 12,6 km/h (3 Bft)
21.10.2021 14:50 13,3 C 14,3 C 13,5 C 14,1 C 13,8 C 0,8 C 57 % 58 % 1004,1 hPa 0,0 l/m 11,7 km/h (2 Bft) SW 225 0 min 5,0 C 13,8 C 16,1 km/h (3 Bft)
21.10.2021 14:55 13,2 C 14,3 C 13,4 C 13,8 C 13,8 C 0,6 C 58 % 58 % 1004,6 hPa 0,0 l/m 10,1 km/h (2 Bft) W-SW 247 0 min 5,1 C 13,8 C 9,5 km/h (2 Bft)
21.10.2021 15:00 13,2 C 14,3 C 13,4 C 14,1 C 14,0 C 0,9 C 58 % 59 % 1004,6 hPa 0,0 l/m 9,8 km/h (2 Bft) S-SW 202 0 min 5,1 C 14,0 C 13,8 km/h (3 Bft)
21.10.2021 15:05 13,3 C 14,3 C 13,5 C 14,3 C 14,3 C 1,0 C 58 % 59 % 1004,6 hPa 0,0 l/m 8,5 km/h (2 Bft) SW 225 0 min 5,2 C 14,3 C 8,5 km/h (2 Bft)
21.10.2021 15:10 13,5 C 14,3 C 13,6 C 14,7 C 14,8 C 1,2 C 58 % 59 % 1004,6 hPa 0,0 l/m 8,7 km/h (2 Bft) S-SW 202 0 min 5,4 C 14,8 C 14,0 km/h (3 Bft)
21.10.2021 15:15 13,5 C 14,3 C 13,7 C 14,8 C 14,8 C 1,3 C 57 % 57 % 1004,6 hPa 0,0 l/m 9,5 km/h (2 Bft) SW 225 0 min 5,2 C 14,8 C 13,8 km/h (3 Bft)
21.10.2021 15:20 13,5 C 14,2 C 13,4 C 14,9 C 14,7 C 1,4 C 57 % 57 % 1004,6 hPa 0,0 l/m 10,1 km/h (2 Bft) S 180 0 min 5,2 C 14,7 C 8,4 km/h (2 Bft)
21.10.2021 15:25 13,3 C 14,2 C 13,3 C 14,4 C 14,0 C 1,1 C 57 % 58 % 1004,6 hPa 0,0 l/m 10,0 km/h (2 Bft) S 180 0 min 5,0 C 14,0 C 11,1 km/h (2 Bft)
21.10.2021 15:30 13,3 C 14,2 C 13,3 C 14,1 C 13,9 C 0,8 C 57 % 58 % 1004,6 hPa 0,0 l/m 8,7 km/h (2 Bft) W-SW 247 0 min 5,0 C 13,9 C 9,0 km/h (2 Bft)
21.10.2021 15:35 13,5 C 14,2 C 13,4 C 13,9 C 13,9 C 0,4 C 56 % 57 % 1005,2 hPa 0,0 l/m 8,4 km/h (2 Bft) SW 225 0 min 4,9 C 13,9 C 9,2 km/h (2 Bft)
21.10.2021 15:40 13,4 C 14,2 C 13,5 C 14,2 C 14,2 C 0,8 C 57 % 57 % 1005,2 hPa 0,0 l/m 8,5 km/h (2 Bft) SW 225 0 min 5,1 C 14,2 C 15,6 km/h (3 Bft)
21.10.2021 15:45 13,5 C 14,2 C 13,5 C 14,5 C 14,6 C 1,0 C 56 % 57 % 1005,2 hPa 0,0 l/m 8,0 km/h (2 Bft) S 180 0 min 4,9 C 14,6 C 7,1 km/h (2 Bft)
21.10.2021 15:50 13,5 C 14,2 C 13,5 C 14,4 C 14,2 C 0,9 C 56 % 56 % 1005,2 hPa 0,0 l/m 8,2 km/h (2 Bft) S 180 0 min 4,9 C 14,2 C 9,8 km/h (2 Bft)
21.10.2021 15:55 13,6 C 14,2 C 13,4 C 14,2 C 14,1 C 0,6 C 55 % 56 % 1004,9 hPa 0,0 l/m 8,9 km/h (2 Bft) W-SW 247 0 min 4,7 C 14,1 C 11,4 km/h (2 Bft)
21.10.2021 16:00 13,5 C 14,2 C 13,4 C 14,0 C 13,8 C 0,5 C 55 % 55 % 1004,9 hPa 0,0 l/m 9,2 km/h (2 Bft) SW 225 0 min 4,6 C 13,8 C 10,0 km/h (2 Bft)
21.10.2021 16:05 13,5 C 14,2 C 13,2 C 13,8 C 13,8 C 0,3 C 55 % 56 % 1004,9 hPa 0,0 l/m 8,4 km/h (2 Bft) W-SW 247 0 min 4,6 C 13,8 C 6,0 km/h (2 Bft)
21.10.2021 16:10 13,5 C 14,2 C 13,2 C 13,8 C 13,6 C 0,3 C 55 % 56 % 1004,9 hPa 0,0 l/m 8,9 km/h (2 Bft) SW 225 0 min 4,6 C 13,6 C 16,3 km/h (3 Bft)
21.10.2021 16:15 13,5 C 14,1 C 13,1 C 13,6 C 13,3 C 0,1 C 56 % 58 % 1005,2 hPa 0,0 l/m 9,0 km/h (2 Bft) W-SW 247 0 min 4,9 C 13,3 C 10,1 km/h (2 Bft)
21.10.2021 16:20 13,5 C 14,1 C 13,1 C 13,4 C 13,3 C 0,0 C 56 % 58 % 1005,2 hPa 0,0 l/m 8,9 km/h (2 Bft) SW 225 0 min 4,9 C 13,3 C 12,9 km/h (3 Bft)
21.10.2021 16:25 13,5 C 14,1 C 13,1 C 13,5 C 13,1 C 0,0 C 56 % 58 % 1005,2 hPa 0,0 l/m 10,0 km/h (2 Bft) W 270 0 min 4,9 C 13,1 C 9,0 km/h (2 Bft)
21.10.2021 16:30 13,4 C 14,1 C 13,2 C 13,3 C 13,1 C 0,0 C 57 % 58 % 1005,2 hPa 0,0 l/m 10,1 km/h (2 Bft) SW 225 0 min 5,1 C 13,1 C 13,4 km/h (3 Bft)
21.10.2021 16:35 13,6 C 14,1 C 13,3 C 13,7 C 13,8 C 0,1 C 57 % 58 % 1005,7 hPa 0,0 l/m 9,0 km/h (2 Bft) SW 225 0 min 5,2 C 13,8 C 7,7 km/h (2 Bft)
21.10.2021 16:40 13,7 C 14,1 C 13,2 C 13,8 C 13,8 C 0,1 C 57 % 58 % 1005,7 hPa 0,0 l/m 9,0 km/h (2 Bft) SW 225 0 min 5,3 C 13,8 C 7,2 km/h (2 Bft)
21.10.2021 16:45 13,5 C 14,1 C 13,2 C 13,9 C 13,9 C 0,4 C 58 % 59 % 1005,7 hPa 0,0 l/m 6,9 km/h (2 Bft) S 180 0 min 5,4 C 13,9 C 4,2 km/h (1 Bft)
21.10.2021 16:50 13,5 C 14,1 C 13,1 C 13,8 C 13,8 C 0,3 C 58 % 59 % 1005,7 hPa 0,0 l/m 6,4 km/h (2 Bft) W-SW 247 0 min 5,4 C 13,8 C 6,9 km/h (2 Bft)
21.10.2021 16:55 13,3 C 14,1 C 12,9 C 13,6 C 13,6 C 0,3 C 58 % 59 % 1005,5 hPa 0,0 l/m 6,6 km/h (2 Bft) SW 225 0 min 5,2 C 13,6 C 12,9 km/h (3 Bft)
21.10.2021 17:00 13,3 C 14,1 C 12,9 C 13,6 C 13,6 C 0,3 C 58 % 60 % 1005,5 hPa 0,0 l/m 6,6 km/h (2 Bft) S 180 0 min 5,2 C 13,6 C 3,1 km/h (1 Bft)
21.10.2021 17:05 13,3 C 14,1 C 12,8 C 13,4 C 13,1 C 0,1 C 58 % 59 % 1005,5 hPa 0,0 l/m 8,7 km/h (2 Bft) SW 225 0 min 5,2 C 13,1 C 9,8 km/h (2 Bft)
21.10.2021 17:10 13,3 C 14,1 C 12,8 C 13,2 C 13,1 C 0,0 C 57 % 59 % 1005,5 hPa 0,0 l/m 8,4 km/h (2 Bft) S-SW 202 0 min 5,0 C 13,1 C 7,4 km/h (2 Bft)
21.10.2021 17:15 13,2 C 14,0 C 12,7 C 13,1 C 12,9 C 0,0 C 58 % 60 % 1005,4 hPa 0,0 l/m 7,4 km/h (2 Bft) S 180 0 min 5,1 C 12,9 C 9,7 km/h (2 Bft)
21.10.2021 17:20 13,3 C 14,0 C 12,7 C 13,2 C 13,1 C 0,0 C 58 % 60 % 1005,4 hPa 0,0 l/m 6,4 km/h (2 Bft) W-SW 247 0 min 5,2 C 13,1 C 3,1 km/h (1 Bft)
21.10.2021 17:25 13,2 C 14,0 C 12,7 C 13,3 C 13,3 C 0,1 C 59 % 61 % 1005,4 hPa 0,0 l/m 5,0 km/h (1 Bft) S 180 0 min 5,4 C 13,3 C 7,6 km/h (2 Bft)
21.10.2021 17:30 13,2 C 14,0 C 12,7 C 13,3 C 13,3 C 0,1 C 59 % 61 % 1005,4 hPa 0,0 l/m 4,5 km/h (1 Bft) SW 225 0 min 5,4 C 13,3 C 6,1 km/h (2 Bft)
21.10.2021 17:35 13,2 C 14,0 C 12,7 C 13,3 C 13,3 C 0,1 C 59 % 61 % 1005,3 hPa 0,0 l/m 4,8 km/h (1 Bft) W 270 0 min 5,4 C 13,3 C 3,9 km/h (1 Bft)
21.10.2021 17:40 13,3 C 14,0 C 12,6 C 13,3 C 13,2 C 0,0 C 59 % 61 % 1005,3 hPa 0,0 l/m 5,1 km/h (1 Bft) N-NO 22 0 min 5,5 C 13,2 C 5,5 km/h (1 Bft)
21.10.2021 17:45 13,2 C 14,0 C 12,5 C 13,1 C 13,0 C 0,0 C 59 % 61 % 1005,3 hPa 0,0 l/m 6,1 km/h (2 Bft) S-SO 157 0 min 5,4 C 13,0 C 10,8 km/h (2 Bft)
21.10.2021 17:50 13,2 C 14,0 C 12,5 C 13,0 C 12,7 C 0,0 C 59 % 61 % 1005,3 hPa 0,0 l/m 6,8 km/h (2 Bft) SW 225 0 min 5,4 C 12,7 C 7,7 km/h (2 Bft)
21.10.2021 17:55 13,1 C 14,0 C 12,4 C 13,0 C 12,7 C 0,0 C 59 % 61 % 1005,3 hPa 0,0 l/m 6,8 km/h (2 Bft) SW 225 0 min 5,3 C 12,7 C 7,6 km/h (2 Bft)
21.10.2021 18:00 13,0 C 14,0 C 12,3 C 12,8 C 12,5 C 0,0 C 59 % 61 % 1005,3 hPa 0,0 l/m 6,8 km/h (2 Bft) SW 225 0 min 5,2 C 12,5 C 6,3 km/h (2 Bft)
21.10.2021 18:05 12,9 C 14,0 C 12,0 C 12,7 C 12,2 C 0,0 C 60 % 62 % 1005,3 hPa 0,0 l/m 5,8 km/h (2 Bft) NO 45 0 min 5,3 C 12,2 C 3,5 km/h (1 Bft)
21.10.2021 18:10 12,8 C 14,0 C 11,9 C 12,6 C 12,2 C 0,0 C 60 % 63 % 1005,3 hPa 0,0 l/m 4,3 km/h (1 Bft) S-SW 202 0 min 5,2 C 12,2 C 7,7 km/h (2 Bft)
21.10.2021 18:15 12,7 C 14,0 C 11,9 C 12,5 C 12,1 C 0,0 C 61 % 63 % 1005,9 hPa 0,0 l/m 3,5 km/h (1 Bft) SO 135 0 min 5,4 C 12,1 C 2,3 km/h (1 Bft)
21.10.2021 18:20 12,6 C 14,0 C 11,7 C 12,4 C 12,0 C 0,0 C 60 % 64 % 1005,9 hPa 0,0 l/m 3,5 km/h (1 Bft) S-SW 202 0 min 5,0 C 12,0 C 2,9 km/h (1 Bft)
21.10.2021 18:25 12,5 C 13,9 C 11,6 C 12,3 C 11,8 C 0,0 C 61 % 64 % 1005,9 hPa 0,0 l/m 2,4 km/h (1 Bft) O-SO 112 0 min 5,2 C 11,8 C 3,9 km/h (1 Bft)
21.10.2021 18:30 12,4 C 13,9 C 11,6 C 12,2 C 11,8 C 0,0 C 61 % 64 % 1005,9 hPa 0,0 l/m 2,3 km/h (1 Bft) SW 225 0 min 5,1 C 11,8 C 2,6 km/h (1 Bft)
21.10.2021 18:35 12,5 C 14,0 C 11,7 C 12,3 C 11,9 C 0,0 C 61 % 64 % 1005,9 hPa 0,0 l/m 2,9 km/h (1 Bft) O-SO 112 0 min 5,2 C 11,9 C 5,1 km/h (1 Bft)
21.10.2021 18:40 12,4 C 14,0 C 11,6 C 12,2 C 11,9 C 0,0 C 61 % 65 % 1005,9 hPa 0,0 l/m 2,7 km/h (1 Bft) NW 315 0 min 5,1 C 11,9 C 3,1 km/h (1 Bft)
21.10.2021 18:45 12,3 C 14,0 C 11,5 C 12,2 C 11,9 C 0,0 C 62 % 65 % 1005,9 hPa 0,0 l/m 2,7 km/h (1 Bft) S 180 0 min 5,2 C 11,9 C 6,4 km/h (2 Bft)
21.10.2021 18:50 12,3 C 14,0 C 11,5 C 12,2 C 11,9 C 0,0 C 62 % 65 % 1005,9 hPa 0,0 l/m 2,4 km/h (1 Bft) S-SO 157 0 min 5,2 C 11,9 C 4,5 km/h (1 Bft)
21.10.2021 18:55 12,2 C 14,0 C 11,5 C 12,1 C 11,9 C 0,0 C 62 % 64 % 1006,1 hPa 0,0 l/m 2,7 km/h (1 Bft) S 180 0 min 5,1 C 11,9 C 3,2 km/h (1 Bft)
21.10.2021 19:00 12,3 C 14,0 C 11,5 C 12,2 C 11,9 C 0,0 C 62 % 64 % 1006,1 hPa 0,0 l/m 3,1 km/h (1 Bft) O-SO 112 0 min 5,2 C 11,9 C 3,1 km/h (1 Bft)
21.10.2021 19:05 12,3 C 14,0 C 11,5 C 12,2 C 12,0 C 0,0 C 62 % 64 % 1006,1 hPa 0,0 l/m 3,1 km/h (1 Bft) S-SO 157 0 min 5,2 C 12,0 C 5,8 km/h (2 Bft)
21.10.2021 19:10 12,3 C 14,0 C 11,5 C 12,2 C 12,0 C 0,0 C 62 % 64 % 1006,1 hPa 0,0 l/m 2,9 km/h (1 Bft) S-SO 157 0 min 5,2 C 12,0 C 8,5 km/h (2 Bft)
21.10.2021 19:15 12,3 C 14,0 C 11,5 C 12,2 C 12,0 C 0,0 C 62 % 64 % 1006,1 hPa 0,0 l/m 3,7 km/h (1 Bft) W 270 0 min 5,2 C 12,0 C 3,2 km/h (1 Bft)
21.10.2021 19:20 12,3 C 14,0 C 11,5 C 12,2 C 12,1 C 0,0 C 62 % 64 % 1006,1 hPa 0,0 l/m 4,5 km/h (1 Bft) S 180 0 min 5,2 C 12,1 C 9,5 km/h (2 Bft)
21.10.2021 19:25 12,0 C 14,1 C 10,9 C 11,6 C 10,7 C 0,0 C 64 % 69 % 1006,1 hPa 0,0 l/m 6,8 km/h (2 Bft) SW 225 0 min 5,4 C 10,7 C 6,8 km/h (2 Bft)
21.10.2021 19:30 10,7 C 14,2 C 9,2 C 10,3 C 8,3 C 0,0 C 68 % 76 % 1006,1 hPa 0,0 l/m 7,9 km/h (2 Bft) W-SW 247 0 min 5,0 C 7,0 C 7,7 km/h (2 Bft)
21.10.2021 19:35 9,6 C 14,2 C 8,5 C 8,7 C 7,0 C 0,0 C 73 % 81 % 1007,9 hPa 0,7 l/m 7,6 km/h (2 Bft) SW 225 0 min 5,0 C 5,6 C 8,4 km/h (2 Bft)
21.10.2021 19:40 9,2 C 14,2 C 8,3 C 8,5 C 6,4 C 0,0 C 75 % 84 % 1007,9 hPa 0,0 l/m 8,0 km/h (2 Bft) SW 225 0 min 5,0 C 4,8 C 9,7 km/h (2 Bft)
21.10.2021 19:45 8,9 C 14,3 C 8,1 C 8,2 C 6,2 C 0,0 C 77 % 85 % 1007,9 hPa 0,0 l/m 7,7 km/h (2 Bft) S-SW 202 0 min 5,1 C 4,6 C 7,6 km/h (2 Bft)
21.10.2021 19:50 8,9 C 14,2 C 7,9 C 8,1 C 6,4 C 0,0 C 78 % 86 % 1007,9 hPa 0,0 l/m 6,9 km/h (2 Bft) SW 225 0 min 5,3 C 5,1 C 10,1 km/h (2 Bft)
21.10.2021 19:55 8,7 C 14,2 C 7,7 C 7,9 C 6,4 C 0,0 C 79 % 86 % 1008,2 hPa 0,0 l/m 6,1 km/h (2 Bft) S 180 0 min 5,3 C 5,3 C 8,2 km/h (2 Bft)
21.10.2021 20:00 8,5 C 14,1 C 7,7 C 7,8 C 6,4 C 0,0 C 80 % 87 % 1008,2 hPa 0,0 l/m 6,0 km/h (2 Bft) W-SW 247 0 min 5,3 C 5,3 C 9,5 km/h (2 Bft)
21.10.2021 20:05 8,4 C 14,1 C 7,5 C 7,7 C 6,4 C 0,0 C 80 % 88 % 1008,2 hPa 0,0 l/m 6,1 km/h (2 Bft) SW 225 0 min 5,2 C 5,3 C 9,7 km/h (2 Bft)
21.10.2021 20:10 8,4 C 14,2 C 7,5 C 7,7 C 6,4 C 0,0 C 81 % 88 % 1008,2 hPa 0,0 l/m 6,1 km/h (2 Bft) S 180 0 min 5,3 C 5,3 C 5,0 km/h (1 Bft)
21.10.2021 20:15 8,3 C 14,1 C 7,3 C 7,5 C 6,0 C 0,0 C 81 % 89 % 1008,2 hPa 0,0 l/m 7,2 km/h (2 Bft) W-SW 247 0 min 5,2 C 4,5 C 6,6 km/h (2 Bft)
21.10.2021 20:20 8,3 C 14,2 C 7,3 C 7,6 C 6,2 C 0,0 C 81 % 89 % 1008,2 hPa 0,0 l/m 6,6 km/h (2 Bft) SW 225 0 min 5,2 C 4,9 C 10,3 km/h (2 Bft)
21.10.2021 20:25 8,2 C 14,1 C 7,2 C 7,5 C 6,2 C 0,0 C 82 % 90 % 1008,2 hPa 0,7 l/m 6,1 km/h (2 Bft) SW 225 0 min 5,3 C 5,1 C 5,8 km/h (2 Bft)
21.10.2021 20:30 8,1 C 14,1 C 7,2 C 7,5 C 6,4 C 0,0 C 82 % 90 % 1008,2 hPa 0,0 l/m 5,6 km/h (1 Bft) S 180 0 min 5,2 C 5,5 C 4,2 km/h (1 Bft)
21.10.2021 20:35 8,1 C 14,1 C 7,2 C 7,6 C 6,6 C 0,0 C 82 % 90 % 1008,6 hPa 0,0 l/m 5,0 km/h (1 Bft) W-SW 247 0 min 5,2 C 5,9 C 7,2 km/h (2 Bft)
21.10.2021 20:40 8,1 C 14,1 C 7,2 C 7,7 C 6,9 C 0,0 C 82 % 90 % 1008,6 hPa 0,0 l/m 4,3 km/h (1 Bft) S-SO 157 0 min 5,2 C 6,9 C 2,4 km/h (1 Bft)
21.10.2021 20:45 8,1 C 14,1 C 7,1 C 7,7 C 6,8 C 0,0 C 83 % 91 % 1008,6 hPa 0,0 l/m 4,3 km/h (1 Bft) W-SW 247 0 min 5,4 C 6,8 C 9,0 km/h (2 Bft)
21.10.2021 20:50 8,0 C 14,1 C 7,1 C 7,6 C 6,8 C 0,0 C 83 % 91 % 1008,6 hPa 0,0 l/m 4,3 km/h (1 Bft) W-SW 247 0 min 5,3 C 6,8 C 7,2 km/h (2 Bft)
21.10.2021 20:55 8,0 C 14,1 C 7,1 C 7,5 C 6,6 C 0,0 C 83 % 91 % 1008,6 hPa 0,0 l/m 5,0 km/h (1 Bft) O-NO 67 0 min 5,3 C 5,9 C 5,8 km/h (2 Bft)
21.10.2021 21:00 8,1 C 14,0 C 7,0 C 7,5 C 6,4 C 0,0 C 83 % 91 % 1008,6 hPa 0,0 l/m 5,1 km/h (1 Bft) SW 225 0 min 5,4 C 5,6 C 8,7 km/h (2 Bft)
21.10.2021 21:05 8,0 C 14,1 C 7,0 C 7,5 C 6,6 C 0,0 C 83 % 91 % 1008,6 hPa 0,0 l/m 4,3 km/h (1 Bft) SW 225 0 min 5,3 C 6,6 C 4,0 km/h (1 Bft)
21.10.2021 21:10 7,9 C 14,1 C 7,0 C 7,5 C 6,7 C 0,0 C 83 % 91 % 1008,6 hPa 0,0 l/m 4,2 km/h (1 Bft) W-SW 247 0 min 5,2 C 6,7 C 6,3 km/h (2 Bft)
21.10.2021 21:15 7,9 C 14,0 C 7,0 C 7,6 C 7,0 C 0,0 C 83 % 92 % 1009,0 hPa 0,0 l/m 3,1 km/h (1 Bft) SW 225 0 min 5,2 C 7,0 C 4,2 km/h (1 Bft)
21.10.2021 21:20 7,9 C 14,0 C 7,0 C 7,6 C 7,0 C 0,0 C 83 % 92 % 1009,0 hPa 0,0 l/m 2,9 km/h (1 Bft) W-SW 247 0 min 5,2 C 7,0 C 4,0 km/h (1 Bft)
21.10.2021 21:25 7,8 C 14,0 C 7,0 C 7,5 C 6,9 C 0,0 C 84 % 92 % 1009,0 hPa 0,0 l/m 3,5 km/h (1 Bft) SW 225 0 min 5,3 C 6,9 C 5,8 km/h (2 Bft)
21.10.2021 21:30 7,9 C 14,0 C 7,0 C 7,5 C 6,8 C 0,0 C 84 % 92 % 1009,0 hPa 0,0 l/m 4,0 km/h (1 Bft) W-SW 247 0 min 5,4 C 6,8 C 6,4 km/h (2 Bft)
21.10.2021 21:35 7,9 C 13,9 C 7,0 C 7,6 C 6,9 C 0,0 C 84 % 92 % 1009,5 hPa 0,0 l/m 3,9 km/h (1 Bft) S 180 0 min 5,4 C 6,9 C 5,3 km/h (1 Bft)
21.10.2021 21:40 7,9 C 13,9 C 7,0 C 7,6 C 7,1 C 0,0 C 84 % 92 % 1009,5 hPa 0,0 l/m 3,7 km/h (1 Bft) W-SW 247 0 min 5,4 C 7,1 C 5,3 km/h (1 Bft)
21.10.2021 21:45 8,0 C 13,9 C 7,0 C 7,6 C 6,9 C 0,0 C 84 % 92 % 1009,5 hPa 0,0 l/m 4,3 km/h (1 Bft) SW 225 0 min 5,5 C 6,9 C 4,7 km/h (1 Bft)
21.10.2021 21:50 8,1 C 13,8 C 7,0 C 7,7 C 7,0 C 0,0 C 84 % 92 % 1009,5 hPa 0,0 l/m 4,0 km/h (1 Bft) W-SW 247 0 min 5,6 C 7,0 C 4,0 km/h (1 Bft)
21.10.2021 21:55 8,0 C 13,8 C 7,1 C 7,7 C 7,2 C 0,0 C 84 % 92 % 1010,2 hPa 0,0 l/m 3,7 km/h (1 Bft) SW 225 0 min 5,5 C 7,2 C 6,3 km/h (2 Bft)
21.10.2021 22:00 8,0 C 13,8 C 7,0 C 7,7 C 7,2 C 0,0 C 83 % 92 % 1010,2 hPa 0,0 l/m 3,9 km/h (1 Bft) SW 225 0 min 5,3 C 7,2 C 2,4 km/h (1 Bft)
21.10.2021 22:05 8,0 C 13,8 C 7,0 C 7,6 C 6,9 C 0,0 C 83 % 92 % 1010,2 hPa 0,0 l/m 4,3 km/h (1 Bft) W 270 0 min 5,3 C 6,9 C 4,8 km/h (1 Bft)
21.10.2021 22:10 8,0 C 13,8 C 7,1 C 7,6 C 6,9 C 0,0 C 83 % 92 % 1010,2 hPa 0,0 l/m 4,2 km/h (1 Bft) SW 225 0 min 5,3 C 6,9 C 5,8 km/h (2 Bft)
21.10.2021 22:15 8,1 C 13,8 C 7,0 C 7,7 C 7,0 C 0,0 C 83 % 92 % 1010,9 hPa 0,0 l/m 4,0 km/h (1 Bft) W-SW 247 0 min 5,4 C 7,0 C 3,4 km/h (1 Bft)
21.10.2021 22:20 8,0 C 13,8 C 7,0 C 7,7 C 7,2 C 0,0 C 83 % 92 % 1010,9 hPa 0,0 l/m 3,7 km/h (1 Bft) SW 225 0 min 5,3 C 7,2 C 5,8 km/h (2 Bft)
21.10.2021 22:25 8,0 C 13,7 C 7,0 C 7,7 C 7,0 C 0,0 C 83 % 92 % 1010,9 hPa 0,0 l/m 4,0 km/h (1 Bft) S 180 0 min 5,3 C 7,0 C 2,4 km/h (1 Bft)
21.10.2021 22:30 8,0 C 13,7 C 6,9 C 7,7 C 7,1 C 0,0 C 83 % 92 % 1010,9 hPa 0,0 l/m 3,7 km/h (1 Bft) SW 225 0 min 5,3 C 7,1 C 4,5 km/h (1 Bft)
21.10.2021 22:35 8,0 C 13,7 C 6,9 C 7,7 C 7,1 C 0,0 C 83 % 92 % 1011,4 hPa 0,0 l/m 3,4 km/h (1 Bft) SW 225 0 min 5,3 C 7,1 C 6,0 km/h (2 Bft)
21.10.2021 22:40 8,0 C 13,7 C 6,9 C 7,6 C 6,8 C 0,0 C 83 % 92 % 1011,4 hPa 0,0 l/m 4,2 km/h (1 Bft) S 180 0 min 5,3 C 6,8 C 8,0 km/h (2 Bft)
21.10.2021 22:45 8,0 C 13,7 C 6,9 C 7,6 C 6,7 C 0,0 C 83 % 92 % 1011,4 hPa 0,0 l/m 4,3 km/h (1 Bft) SW 225 0 min 5,3 C 6,7 C 3,2 km/h (1 Bft)
21.10.2021 22:50 8,1 C 13,6 C 6,8 C 7,6 C 6,6 C 0,0 C 83 % 92 % 1011,4 hPa 0,0 l/m 4,3 km/h (1 Bft) W-SW 247 0 min 5,4 C 6,6 C 9,8 km/h (2 Bft)
21.10.2021 22:55 8,0 C 13,6 C 6,7 C 7,4 C 6,3 C 0,0 C 82 % 92 % 1011,4 hPa 0,0 l/m 4,8 km/h (1 Bft) W-SW 247 0 min 5,1 C 5,6 C 12,2 km/h (2 Bft)
21.10.2021 23:00 8,0 C 13,6 C 6,6 C 7,4 C 6,1 C 0,0 C 82 % 92 % 1011,4 hPa 0,0 l/m 5,0 km/h (1 Bft) S-SW 202 0 min 5,1 C 5,3 C 4,8 km/h (1 Bft)
21.10.2021 23:05 7,9 C 13,6 C 6,5 C 7,3 C 6,1 C 0,0 C 81 % 92 % 1011,4 hPa 0,0 l/m 4,5 km/h (1 Bft) SW 225 0 min 4,8 C 6,1 C 4,0 km/h (1 Bft)
21.10.2021 23:10 7,9 C 13,6 C 6,5 C 7,3 C 6,2 C 0,0 C 81 % 92 % 1011,4 hPa 0,0 l/m 4,2 km/h (1 Bft) SW 225 0 min 4,8 C 6,2 C 6,4 km/h (2 Bft)
21.10.2021 23:15 7,8 C 13,6 C 6,4 C 7,3 C 6,2 C 0,0 C 81 % 92 % 1011,1 hPa 0,0 l/m 3,7 km/h (1 Bft) SW 225 0 min 4,7 C 6,2 C 5,5 km/h (1 Bft)
21.10.2021 23:20 7,7 C 13,6 C 6,4 C 7,2 C 6,3 C 0,0 C 82 % 92 % 1011,1 hPa 0,0 l/m 3,4 km/h (1 Bft) SW 225 0 min 4,8 C 6,3 C 1,9 km/h (1 Bft)
21.10.2021 23:25 7,6 C 13,6 C 6,4 C 7,2 C 6,3 C 0,0 C 82 % 92 % 1011,1 hPa 0,0 l/m 3,1 km/h (1 Bft) W-SW 247 0 min 4,7 C 6,3 C 3,9 km/h (1 Bft)
21.10.2021 23:30 7,6 C 13,6 C 6,4 C 7,2 C 6,3 C 0,0 C 82 % 92 % 1011,1 hPa 0,0 l/m 3,2 km/h (1 Bft) S-SW 202 0 min 4,7 C 6,3 C 5,0 km/h (1 Bft)
21.10.2021 23:35 7,7 C 13,6 C 6,5 C 7,2 C 6,2 C 0,0 C 83 % 92 % 1011,6 hPa 0,0 l/m 3,7 km/h (1 Bft) W-SW 247 0 min 5,0 C 6,2 C 5,3 km/h (1 Bft)
21.10.2021 23:40 7,7 C 13,5 C 6,4 C 7,2 C 6,2 C 0,0 C 83 % 92 % 1011,6 hPa 0,0 l/m 3,7 km/h (1 Bft) SW 225 0 min 5,0 C 6,2 C 7,2 km/h (2 Bft)
21.10.2021 23:45 7,6 C 13,5 C 6,3 C 7,2 C 6,3 C 0,0 C 83 % 92 % 1011,6 hPa 0,0 l/m 3,5 km/h (1 Bft) W-SW 247 0 min 4,9 C 6,3 C 5,0 km/h (1 Bft)
21.10.2021 23:50 7,6 C 13,5 C 6,3 C 7,1 C 6,0 C 0,0 C 83 % 92 % 1011,6 hPa 0,0 l/m 3,9 km/h (1 Bft) W-SW 247 0 min 4,9 C 6,0 C 2,9 km/h (1 Bft)
21.10.2021 23:55 7,5 C 13,5 C 6,3 C 7,0 C 6,1 C 0,0 C 83 % 92 % 1011,9 hPa 0,0 l/m 3,7 km/h (1 Bft) SW 225 0 min 4,8 C 6,1 C 5,0 km/h (1 Bft)
_ Min-Zeit 23:55 23:40 23:45 23:55 20:15 00:00 15:55 16:00 07:35 - 04:25 - - - 16:00 20:15 01:40
Minimum _ 7,5 C 13,5 C 6,3 C 7,0 C 6,0 C 0,0 C 55 % 55 % 994,2 hPa - 1,0 km/h (0 Bft) - - - 4,6 C 4,5 C 0,0 km/h (0 Bft)
_ Max-Zeit 00:00 04:15 00:00 00:00 00:00 15:20 21:25 21:15 23:55 07:55 12:50 - - 00:00 03:35 00:00 12:45
Maximum _ 18,3 C 15,5 C 17,2 C 18,2 C 18,0 C 1,4 C 84 % 92 % 1011,9 hPa 0,7 l/m 16,7 km/h
W-SW (3 Bft)
- - 0 min 12,8 C 18,0 C 37,8 km/h
SW (5 Bft)
Durchschnitt _ 13,7 C 14,6 C 13,0 C 13,7 C 13,3 C 0,1 C 69 % 73 % 1002,1 hPa #2,1 l/m 6,3 km/h (2 Bft) SW - #0 min. 8,1 C 13,2 C 8,9 km/h (2 Bft)
2021 www.wetterstation-wechselburg.de